Time;durP1;ratioP1;P1;durP2;ratioP2;P2;SDS_P1;SDS_P2;PMS_P1;PMS_P2;Temp;Humidity;BMP_temperature;BMP_pressure;BME280_temperature;BME280_humidity;BME280_pressure;Samples;Min_cycle;Max_cycle;Signal;HPM_P1;HPM_P2
2022/10/28 00:00:53;;;;;;;16.05;11.13;;;;;;;12.77;90.51;101789.25;4987025;28;20031;-68
2022/10/28 00:03:18;;;;;;;16.60;11.85;;;;;;;12.77;90.33;101785.00;4970689;28;20392;-69
2022/10/28 00:05:45;;;;;;;16.02;11.40;;;;;;;12.75;90.75;101789.19;4987757;28;20456;-68
2022/10/28 00:08:10;;;;;;;23.58;12.30;;;;;;;12.69;91.04;101777.66;4987978;28;20506;-68
2022/10/28 00:10:36;;;;;;;21.67;11.82;;;;;;;12.42;92.53;101746.97;4987865;28;20038;-68
2022/10/28 00:13:01;;;;;;;18.40;11.35;;;;;;;12.63;93.75;101780.81;5021918;28;20038;-68
2022/10/28 00:15:27;;;;;;;20.15;11.77;;;;;;;12.21;94.53;101702.75;5030348;28;20029;-68
2022/10/28 00:17:52;;;;;;;18.95;12.02;;;;;;;12.71;95.11;101788.97;5033413;28;20042;-68
2022/10/28 00:20:18;;;;;;;17.65;12.43;;;;;;;12.75;95.02;101786.59;5033191;28;20522;-68
2022/10/28 00:22:43;;;;;;;20.67;12.88;;;;;;;12.78;94.41;101779.00;5033095;28;20475;-69
2022/10/28 00:25:09;;;;;;;18.80;11.73;;;;;;;12.83;94.18;101786.97;5033058;28;20116;-68
2022/10/28 00:27:35;;;;;;;20.95;11.77;;;;;;;12.86;94.45;101781.06;5033307;28;20104;-68
2022/10/28 00:30:00;;;;;;;18.08;11.75;;;;;;;12.92;93.88;101774.47;5033216;28;20068;-68
2022/10/28 00:32:30;;;;;;;17.80;12.60;;;;;;;12.97;93.51;101779.88;5032982;28;20487;-68
2022/10/28 00:34:56;;;;;;;19.25;11.77;;;;;;;12.99;94.44;101777.38;5033059;28;20025;-68
2022/10/28 00:37:21;;;;;;;15.88;11.05;;;;;;;13.07;94.89;101779.50;5033275;28;20030;-69
2022/10/28 00:39:47;;;;;;;18.42;10.90;;;;;;;13.19;94.42;101774.00;5033019;28;20837;-68
2022/10/28 00:42:17;;;;;;;21.10;10.52;;;;;;;13.15;93.40;101764.31;4998078;28;20037;-68
2022/10/28 00:44:52;;;;;;;15.20;10.18;;;;;;;13.00;97.85;101738.56;5032994;28;20025;-68
2022/10/28 00:47:37;;;;;;;24.08;10.57;;;;;;;13.23;98.60;101775.03;5031316;28;20030;-69
2022/10/28 00:50:08;;;;;;;21.48;12.00;;;;;;;13.12;98.96;101777.13;5032804;28;20508;-68
2022/10/28 00:52:34;;;;;;;22.13;11.32;;;;;;;13.05;99.99;101772.47;5015042;28;20041;-69
2022/10/28 00:55:01;;;;;;;16.83;10.45;;;;;;;13.05;100.00;101775.94;5032440;28;20033;-68
2022/10/28 00:57:32;;;;;;;16.52;10.13;;;;;;;13.09;100.00;101777.88;5032808;28;20036;-68
2022/10/28 01:00:00;;;;;;;21.13;11.75;;;;;;;13.15;100.00;101771.22;5032566;28;20029;-68
2022/10/28 01:02:26;;;;;;;21.35;12.50;;;;;;;13.17;100.00;101772.16;5032648;28;20033;-68
2022/10/28 01:04:51;;;;;;;19.38;11.27;;;;;;;13.13;100.00;101768.53;5032337;28;20454;-68
2022/10/28 01:07:18;;;;;;;20.98;11.23;;;;;;;13.11;100.00;101773.66;5032611;28;20065;-67
2022/10/28 01:09:44;;;;;;;21.73;11.23;;;;;;;12.87;100.00;101731.91;5032647;28;20022;-67
2022/10/28 01:12:39;;;;;;;15.70;9.65;;;;;;;13.13;100.00;101778.03;5032232;28;20036;-68
2022/10/28 01:15:23;;;;;;;14.18;9.27;;;;;;;13.16;100.00;101767.78;5031880;28;20029;-68
2022/10/28 01:17:55;;;;;;;14.95;9.63;;;;;;;13.16;100.00;101767.78;5032288;28;20399;-68
2022/10/28 01:20:44;;;;;;;17.42;9.18;;;;;;;13.22;100.00;101774.16;5032212;28;20041;-68
2022/10/28 01:23:22;;;;;;;;;;;;;;;13.16;100.00;101768.69;5032464;28;20112;-67
2022/10/28 01:26:05;;;;;;;14.00;8.20;;;;;;;13.18;100.00;101763.56;5032298;28;19915;-68
2022/10/28 01:29:09;;;;;;;13.15;8.48;;;;;;;13.16;100.00;101766.09;5031408;28;20075;-69
2022/10/28 01:31:44;;;;;;;18.48;10.15;;;;;;;13.17;100.00;101765.28;5032187;28;20041;-69
2022/10/28 01:34:37;;;;;;;16.95;9.88;;;;;;;13.13;99.42;101762.47;5032285;28;20043;-69
2022/10/28 01:37:25;;;;;;;20.55;11.30;;;;;;;13.01;99.45;101758.47;5032084;28;20037;-69
2022/10/28 01:40:02;;;;;;;21.92;12.02;;;;;;;13.02;99.12;101756.75;4970538;28;20039;-69
2022/10/28 01:42:36;;;;;;;15.75;11.50;;;;;;;12.97;98.59;101761.72;4970568;28;20125;-69
2022/10/28 01:45:27;;;;;;;19.40;10.77;;;;;;;12.90;97.71;101765.72;4970527;28;20057;-69
2022/10/28 01:48:07;;;;;;;15.65;11.40;;;;;;;12.84;97.01;101767.16;4970506;28;20030;-69
2022/10/28 01:50:37;;;;;;;15.93;11.38;;;;;;;12.72;97.21;101757.97;4970248;28;20444;-69
2022/10/28 01:53:08;;;;;;;16.83;11.50;;;;;;;12.30;97.37;101687.69;4970378;28;20039;-69
2022/10/28 01:55:40;;;;;;;18.02;10.98;;;;;;;12.74;97.12;101758.03;4970397;28;20038;-69
2022/10/28 01:58:09;;;;;;;15.55;10.77;;;;;;;12.69;97.03;101769.88;4970112;28;20116;-69
2022/10/28 02:00:36;;;;;;;15.38;10.55;;;;;;;12.61;97.34;101744.47;4970291;28;20033;-69
2022/10/28 02:03:02;;;;;;;17.67;10.25;;;;;;;12.76;97.42;101765.06;4970407;28;20035;-69
2022/10/28 02:05:42;;;;;;;17.30;10.75;;;;;;;12.52;97.96;101722.41;4970144;28;20044;-69
2022/10/28 02:08:16;;;;;;;14.48;9.50;;;;;;;12.43;99.32;101723.72;4970164;28;20070;-69
2022/10/28 02:10:55;;;;;;;12.73;8.05;;;;;;;12.69;100.00;101762.09;4969909;28;20038;-69
2022/10/28 02:13:27;;;;;;;14.80;8.55;;;;;;;12.59;100.00;101763.34;4969891;28;20034;-69
2022/10/28 02:16:14;;;;;;;14.63;9.98;;;;;;;12.60;100.00;101747.88;4975442;28;20038;-68
2022/10/28 02:19:05;;;;;;;18.58;11.95;;;;;;;12.83;100.00;101762.78;5031038;28;20075;-69
2022/10/28 02:21:40;;;;;;;30.80;11.20;;;;;;;12.82;100.00;101767.06;5030679;28;20128;-69
2022/10/28 02:24:13;;;;;;;24.85;13.20;;;;;;;12.87;100.00;101770.78;5031238;28;20033;-69
2022/10/28 02:26:45;;;;;;;25.48;12.57;;;;;;;12.89;100.00;101770.84;5031214;28;20037;-69
2022/10/28 02:29:25;;;;;;;22.15;11.77;;;;;;;12.93;100.00;101763.31;5030720;28;20108;-69
2022/10/28 02:31:58;;;;;;;24.15;12.60;;;;;;;12.89;100.00;101763.06;5031003;28;20072;-69
2022/10/28 02:34:32;;;;;;;28.23;13.95;;;;;;;12.93;100.00;101772.75;5030733;28;20464;-69
2022/10/28 02:37:00;;;;;;;31.05;14.82;;;;;;;12.93;100.00;101780.53;5030622;28;20021;-69
2022/10/28 02:39:31;;;;;;;42.90;16.00;;;;;;;12.91;100.00;101782.16;5012419;28;20044;-69
2022/10/28 02:42:02;;;;;;;34.22;15.82;;;;;;;12.89;100.00;101789.88;5030738;28;20022;-68
2022/10/28 02:44:34;;;;;;;39.80;16.00;;;;;;;12.92;100.00;101778.75;5030586;28;20025;-67
2022/10/28 02:47:05;;;;;;;37.83;17.27;;;;;;;12.94;100.00;101777.13;5030511;28;20539;-67
2022/10/28 02:49:35;;;;;;;36.50;17.88;;;;;;;12.95;100.00;101797.06;5030512;28;20479;-68
2022/10/28 02:52:03;;;;;;;46.53;20.48;;;;;;;12.78;100.00;101752.19;5030456;28;20763;-68
2022/10/28 02:54:42;;;;;;;41.10;18.65;;;;;;;12.93;100.00;101791.81;5030811;28;20061;-67
2022/10/28 02:57:14;;;;;;;44.83;19.17;;;;;;;12.92;100.00;101790.03;5030298;28;20060;-68
2022/10/28 02:59:40;;;;;;;38.47;18.75;;;;;;;12.74;100.00;101764.09;5030296;28;20511;-68
2022/10/28 03:02:06;;;;;;;36.97;19.08;;;;;;;12.84;100.00;101787.88;5030640;28;20108;-69
2022/10/28 03:04:31;;;;;;;39.38;18.95;;;;;;;12.86;100.00;101794.00;5030374;28;20052;-68
2022/10/28 03:06:57;;;;;;;36.08;18.83;;;;;;;12.81;100.00;101796.41;5030499;28;20109;-68
2022/10/28 03:09:22;;;;;;;35.25;17.92;;;;;;;12.83;100.00;101804.25;5030627;28;20074;-68
2022/10/28 03:11:47;;;;;;;38.88;17.75;;;;;;;12.76;100.00;101790.97;5030167;28;20468;-68
2022/10/28 03:14:13;;;;;;;33.45;16.50;;;;;;;12.85;100.00;101807.81;5030419;28;20025;-68
2022/10/28 03:16:38;;;;;;;30.45;16.85;;;;;;;12.76;100.00;101809.13;5030173;28;20118;-68
2022/10/28 03:19:05;;;;;;;33.88;17.08;;;;;;;12.77;100.00;101803.13;5030174;28;20487;-67
2022/10/28 03:21:30;;;;;;;33.53;17.15;;;;;;;12.78;100.00;101804.91;5030108;28;20552;-67
2022/10/28 03:23:55;;;;;;;30.55;16.15;;;;;;;12.79;100.00;101798.00;5030243;28;20021;-68
2022/10/28 03:26:21;;;;;;;28.70;16.00;;;;;;;12.90;100.00;101814.09;5030155;28;20037;-68
2022/10/28 03:28:46;;;;;;;30.77;17.35;;;;;;;12.98;100.00;101819.66;5030598;28;20063;-68
2022/10/28 03:31:14;;;;;;;25.30;15.20;;;;;;;12.95;100.00;101825.59;5030229;28;20182;-68
2022/10/28 03:33:39;;;;;;;23.55;14.80;;;;;;;12.85;100.00;101819.06;5030082;28;20030;-68
2022/10/28 03:36:05;;;;;;;27.02;14.85;;;;;;;12.82;100.00;101815.41;5030165;28;20036;-68
2022/10/28 03:38:30;;;;;;;32.67;15.15;;;;;;;12.73;100.00;101819.31;5030518;28;20391;-68
2022/10/28 03:40:56;;;;;;;23.08;14.70;;;;;;;12.63;100.00;101809.31;5011147;28;20049;-68
2022/10/28 03:43:21;;;;;;;20.90;14.30;;;;;;;12.71;100.00;101825.25;5012757;28;20117;-68
2022/10/28 03:45:47;;;;;;;35.75;15.32;;;;;;;12.48;100.00;101780.94;5010788;28;20484;-68
2022/10/28 03:48:13;;;;;;;22.88;15.02;;;;;;;12.69;100.00;101820.00;5010487;28;20368;-68
2022/10/28 03:50:38;;;;;;;28.20;15.02;;;;;;;12.69;100.00;101822.56;5011993;28;20040;-67
2022/10/28 03:53:04;;;;;;;23.02;15.25;;;;;;;12.38;100.00;101782.16;5014270;28;20045;-68
2022/10/28 03:55:29;;;;;;;29.83;16.17;;;;;;;12.58;100.00;101823.75;5013670;28;20034;-68
2022/10/28 03:57:54;;;;;;;34.40;16.30;;;;;;;12.45;100.00;101792.03;5014180;28;20034;-68
2022/10/28 04:00:20;;;;;;;30.00;17.02;;;;;;;12.50;100.00;101822.44;5013794;28;20048;-68
2022/10/28 04:02:50;;;;;;;31.90;17.75;;;;;;;12.30;100.00;101804.22;5032518;28;20049;-68
2022/10/28 04:05:15;;;;;;;;;;;;;;;12.36;100.00;101809.72;5033545;28;20029;-68
2022/10/28 04:07:41;;;;;;;34.03;18.55;;;;;;;12.37;100.00;101811.47;5033459;28;19913;-68
2022/10/28 04:10:07;;;;;;;40.63;18.85;;;;;;;12.38;100.00;101814.97;5032924;28;20037;-68
2022/10/28 04:12:32;;;;;;;39.65;20.20;;;;;;;11.98;100.00;101774.94;5013559;28;20030;-68
2022/10/28 04:14:57;;;;;;;40.25;19.52;;;;;;;12.19;100.00;101801.06;5013484;28;20030;-68
2022/10/28 04:17:23;;;;;;;42.47;20.63;;;;;;;12.23;100.00;101809.88;5015427;28;20472;-69
2022/10/28 04:19:48;;;;;;;53.63;21.02;;;;;;;12.11;100.00;101787.72;5033044;28;20395;-68
2022/10/28 04:22:14;;;;;;;40.83;20.20;;;;;;;12.28;100.00;101811.00;5033072;28;20029;-68
2022/10/28 04:24:39;;;;;;;46.17;20.90;;;;;;;12.24;100.00;101814.25;5033066;28;20022;-68
2022/10/28 04:27:04;;;;;;;42.17;20.92;;;;;;;12.32;100.00;101815.53;5033410;28;20031;-68
2022/10/28 04:29:31;;;;;;;46.20;21.25;;;;;;;11.92;100.00;101739.25;5032910;28;20021;-68
2022/10/28 04:31:56;;;;;;;40.13;19.77;;;;;;;12.41;100.00;101807.34;5015084;28;20057;-68
2022/10/28 04:34:21;;;;;;;55.00;20.95;;;;;;;12.25;100.00;101782.34;5032985;28;20098;-69
2022/10/28 04:36:47;;;;;;;45.60;21.02;;;;;;;12.53;100.00;101826.09;5033267;28;20112;-69
2022/10/28 04:39:12;;;;;;;48.80;21.67;;;;;;;12.48;100.00;101818.91;5032921;28;20029;-69
2022/10/28 04:41:38;;;;;;;47.10;23.08;;;;;;;12.53;100.00;101825.22;5032685;28;20033;-69
2022/10/28 04:44:03;;;;;;;43.53;21.80;;;;;;;12.37;100.00;101782.09;5031633;28;20033;-69
2022/10/28 04:46:29;;;;;;;61.63;24.08;;;;;;;12.63;100.00;101817.09;5032791;28;20395;-69
2022/10/28 04:48:54;;;;;;;50.75;22.77;;;;;;;12.56;100.00;101812.41;5032091;28;20037;-69
2022/10/28 04:51:19;;;;;;;56.05;23.60;;;;;;;12.56;100.00;101817.59;5027220;28;20677;-69
2022/10/28 04:53:45;;;;;;;58.90;22.95;;;;;;;12.53;100.00;101809.69;5025928;28;20025;-69
2022/10/28 04:56:10;;;;;;;59.20;24.17;;;;;;;12.66;100.00;101826.72;5027822;28;20030;-68
2022/10/28 04:58:36;;;;;;;63.20;23.52;;;;;;;12.62;100.00;101826.56;5032619;28;20038;-69
2022/10/28 05:01:06;;;;;;;70.15;25.58;;;;;;;12.53;100.00;101813.13;5032612;28;20033;-69
2022/10/28 05:03:31;;;;;;;68.50;24.98;;;;;;;12.55;100.00;101829.66;5031694;28;20154;-69
2022/10/28 05:05:57;;;;;;;75.50;25.52;;;;;;;12.55;100.00;101828.78;5032469;28;20064;-69
2022/10/28 05:08:22;;;;;;;65.65;24.23;;;;;;;12.38;100.00;101789.06;5032349;28;20029;-69
2022/10/28 05:10:49;;;;;;;68.88;23.17;;;;;;;12.37;100.00;101797.63;5032791;28;20037;-69
2022/10/28 05:13:16;;;;;;;70.25;21.52;;;;;;;12.56;100.00;101833.13;5030724;28;20430;-69
2022/10/28 05:15:41;;;;;;;63.33;22.08;;;;;;;12.56;100.00;101830.53;5031942;28;20122;-69
2022/10/28 05:18:06;;;;;;;72.68;20.67;;;;;;;12.64;100.00;101833.53;5032216;28;20123;-69
2022/10/28 05:20:32;;;;;;;52.80;20.45;;;;;;;12.69;100.00;101840.72;5032023;28;20037;-69
2022/10/28 05:22:57;;;;;;;66.55;22.08;;;;;;;12.75;100.00;101843.63;5020214;28;20053;-70
2022/10/28 05:25:23;;;;;;;46.03;16.42;;;;;;;12.83;100.00;101841.41;5011347;28;20026;-69
2022/10/28 05:27:49;;;;;;;38.65;15.10;;;;;;;12.72;100.00;101847.75;5013149;28;20053;-69
2022/10/28 05:30:14;;;;;;;31.42;15.18;;;;;;;12.76;100.00;101854.84;5011396;28;20446;-69
2022/10/28 05:32:41;;;;;;;22.10;12.07;;;;;;;12.66;100.00;101835.41;5011594;28;20105;-69
2022/10/28 05:35:07;;;;;;;22.17;12.40;;;;;;;12.81;100.00;101849.91;5010968;28;20109;-69
2022/10/28 05:37:33;;;;;;;24.88;13.32;;;;;;;12.89;100.00;101854.66;5010673;28;20022;-69
2022/10/28 05:39:58;;;;;;;27.02;13.43;;;;;;;12.87;100.00;101833.00;5011255;28;20041;-68
2022/10/28 05:42:24;;;;;;;39.78;15.57;;;;;;;12.80;100.00;101828.31;5010865;28;20030;-68
2022/10/28 05:44:49;;;;;;;32.45;15.68;;;;;;;12.97;100.00;101862.81;5011506;28;20030;-69
2022/10/28 05:47:15;;;;;;;32.78;15.48;;;;;;;12.84;100.00;101838.00;5011004;28;20034;-69
2022/10/28 05:49:40;;;;;;;50.15;15.73;;;;;;;12.95;100.00;101865.34;5008403;28;20042;-68
2022/10/28 05:52:06;;;;;;;54.47;17.35;;;;;;;12.83;100.00;101874.22;5012529;28;20034;-69
2022/10/28 05:54:31;;;;;;;37.42;17.45;;;;;;;12.56;100.00;101849.59;5010940;28;20022;-68
2022/10/28 05:56:56;;;;;;;42.70;18.35;;;;;;;12.65;100.00;101876.75;5010975;28;20076;-69
2022/10/28 05:59:22;;;;;;;60.88;16.45;;;;;;;12.26;100.00;101833.34;5010809;28;20083;-70
2022/10/28 06:01:48;;;;;;;37.80;18.73;;;;;;;12.55;100.00;101883.19;5014410;28;20022;-75
2022/10/28 06:04:13;;;;;;;57.10;23.20;;;;;;;12.40;100.00;101872.88;5017805;28;20038;-67
2022/10/28 06:06:38;;;;;;;53.45;25.15;;;;;;;12.40;100.00;101871.22;5010897;28;20475;-67
2022/10/28 06:09:04;;;;;;;57.22;23.20;;;;;;;12.44;100.00;101877.44;5028022;28;20046;-68
2022/10/28 06:11:29;;;;;;;39.83;18.48;;;;;;;12.04;100.00;101885.69;5016267;28;20041;-72
2022/10/28 06:13:55;;;;;;;61.17;23.15;;;;;;;12.06;100.00;101897.00;5017186;28;20026;-71
2022/10/28 06:16:20;;;;;;;77.50;23.02;;;;;;;12.12;100.00;101885.31;5030641;28;20037;-66
2022/10/28 06:18:45;;;;;;;57.95;22.25;;;;;;;11.70;100.00;101900.25;5030802;28;20017;-69
2022/10/28 06:21:11;;;;;;;44.85;20.67;;;;;;;11.49;100.00;101906.00;5030497;28;20084;-69
2022/10/28 06:23:36;;;;;;;41.63;21.58;;;;;;;11.43;100.00;101900.47;5017746;28;20068;-69
2022/10/28 06:26:03;;;;;;;46.08;21.20;;;;;;;11.03;100.00;101836.16;5029063;28;20021;-69
2022/10/28 06:28:29;;;;;;;40.75;23.80;;;;;;;11.38;100.00;101860.53;5026447;28;20753;-69
2022/10/28 06:31:04;;;;;;;42.25;23.73;;;;;;;11.87;100.00;101911.50;5015735;28;20033;-70
2022/10/28 06:33:31;;;;;;;37.80;21.27;;;;;;;11.96;100.00;101890.44;5011389;28;20045;-70
2022/10/28 06:35:57;;;;;;;31.52;19.60;;;;;;;11.99;100.00;101903.56;5011343;28;20468;-70
2022/10/28 06:38:24;;;;;;;29.38;19.23;;;;;;;12.13;100.00;101905.19;5011484;28;20056;-70
2022/10/28 06:40:49;;;;;;;26.58;20.15;;;;;;;12.21;100.00;101904.69;5011158;28;20029;-70
2022/10/28 06:43:15;;;;;;;31.83;20.75;;;;;;;12.20;100.00;101895.16;5011277;28;20108;-70
2022/10/28 06:45:40;;;;;;;30.70;18.48;;;;;;;12.25;100.00;101901.47;4997996;28;20034;-70
2022/10/28 06:48:06;;;;;;;29.08;18.65;;;;;;;12.12;100.00;101915.47;5026011;28;20060;-70
2022/10/28 06:50:33;;;;;;;29.40;19.20;;;;;;;12.01;100.00;101907.09;5027109;28;20112;-70
2022/10/28 06:52:58;;;;;;;24.88;17.17;;;;;;;12.26;100.00;101913.59;5001960;28;20471;-70
2022/10/28 06:55:25;;;;;;;21.50;15.52;;;;;;;12.41;100.00;101913.53;5021375;28;20021;-69
2022/10/28 06:57:50;;;;;;;21.17;15.98;;;;;;;12.54;100.00;101917.66;5019625;28;20037;-70
2022/10/28 07:00:16;;;;;;;22.88;17.15;;;;;;;12.67;100.00;101911.41;5020405;28;20041;-70
2022/10/28 07:02:42;;;;;;;22.85;17.13;;;;;;;12.68;100.00;101887.28;5021156;28;20022;-70
2022/10/28 07:05:08;;;;;;;23.90;16.70;;;;;;;12.87;100.00;101909.84;4983947;28;20034;-70
2022/10/28 07:07:36;;;;;;;22.70;14.63;;;;;;;12.74;100.00;101916.97;5020607;28;20594;-70
2022/10/28 07:10:03;;;;;;;22.10;16.23;;;;;;;12.53;100.00;101862.34;5021975;28;20037;-69
2022/10/28 07:12:28;;;;;;;25.85;17.73;;;;;;;12.76;100.00;101915.38;4992572;28;20030;-69
2022/10/28 07:14:53;;;;;;;33.00;19.75;;;;;;;12.59;100.00;101930.03;4999231;28;20021;-70
2022/10/28 07:17:19;;;;;;;26.80;18.92;;;;;;;12.53;100.00;101921.06;5016547;28;20026;-70
2022/10/28 07:19:44;;;;;;;23.23;16.83;;;;;;;12.66;100.00;101915.72;5019137;28;20025;-69
2022/10/28 07:22:10;;;;;;;23.48;15.57;;;;;;;12.78;100.00;101916.34;5022293;28;20026;-70
2022/10/28 07:24:35;;;;;;;20.25;15.30;;;;;;;12.83;100.00;101908.78;5020082;28;20033;-70
2022/10/28 07:27:00;;;;;;;28.80;15.18;;;;;;;12.96;100.00;101915.50;5005935;28;20038;-70
2022/10/28 07:29:26;;;;;;;21.75;12.77;;;;;;;12.35;100.00;101871.75;5015661;28;20067;-69
2022/10/28 07:31:55;;;;;;;22.02;13.82;;;;;;;12.24;100.00;101923.00;5033261;28;20046;-69
2022/10/28 07:34:20;;;;;;;25.60;14.80;;;;;;;12.36;100.00;101923.66;5023985;28;20033;-69
2022/10/28 07:36:50;;;;;;;21.75;14.45;;;;;;;12.28;100.00;101922.34;5024978;28;20639;-69
2022/10/28 07:39:16;;;;;;;21.13;13.20;;;;;;;12.33;100.00;101901.88;4988212;28;20057;-70
2022/10/28 07:41:41;;;;;;;23.70;15.02;;;;;;;12.58;100.00;101911.81;5031303;28;20495;-69
2022/10/28 07:44:06;;;;;;;22.02;14.93;;;;;;;12.79;100.00;101919.81;5034694;28;20033;-70
2022/10/28 07:46:32;;;;;;;23.60;15.18;;;;;;;13.01;100.00;101924.41;5034195;28;20031;-70
2022/10/28 07:48:58;;;;;;;25.42;15.52;;;;;;;13.11;100.00;101921.44;5034167;28;20407;-70
2022/10/28 07:51:24;;;;;;;26.42;16.88;;;;;;;13.26;100.00;101915.25;5031177;28;20022;-69
2022/10/28 07:53:49;;;;;;;25.67;14.88;;;;;;;13.35;100.00;101904.44;5025466;28;20034;-70
2022/10/28 07:56:15;;;;;;;23.30;16.00;;;;;;;13.46;100.00;101908.47;5026313;28;20084;-70
2022/10/28 07:58:42;;;;;;;30.15;14.98;;;;;;;13.50;100.00;101901.72;5025285;28;20041;-69
2022/10/28 08:01:09;;;;;;;23.10;15.48;;;;;;;13.67;100.00;101908.59;5031367;28;20029;-70
2022/10/28 08:03:36;;;;;;;24.15;14.57;;;;;;;13.95;100.00;101904.69;5033546;28;20033;-70
2022/10/28 08:06:11;;;;;;;20.52;13.57;;;;;;;14.06;100.00;101867.13;5016480;28;20508;-70
2022/10/28 08:08:36;;;;;;;20.63;13.60;;;;;;;14.47;100.00;101890.56;5013027;28;20022;-71
2022/10/28 08:11:13;;;;;;;24.80;16.23;;;;;;;14.62;100.00;101895.53;5019122;28;20034;-72
2022/10/28 08:13:38;;;;;;;21.67;14.63;;;;;;;14.65;100.00;101895.69;5013877;28;20496;-70
2022/10/28 08:16:04;;;;;;;23.80;15.30;;;;;;;14.50;100.00;101892.41;5012085;28;20129;-70
2022/10/28 08:18:30;;;;;;;25.13;17.55;;;;;;;14.52;100.00;101885.59;5011588;28;20124;-70
2022/10/28 08:20:58;;;;;;;22.23;14.60;;;;;;;14.76;100.00;101885.75;5012701;28;20033;-70
2022/10/28 08:23:25;;;;;;;25.35;14.90;;;;;;;14.98;100.00;101887.56;5011724;28;20022;-70
2022/10/28 08:25:51;;;;;;;22.73;13.95;;;;;;;15.05;100.00;101893.91;5009146;28;20033;-71
2022/10/28 08:28:17;;;;;;;21.77;13.68;;;;;;;15.08;100.00;101890.53;5011213;28;20495;-71
2022/10/28 08:30:43;;;;;;;20.80;13.48;;;;;;;15.04;100.00;101885.22;5011091;28;20076;-69
2022/10/28 08:33:08;;;;;;;20.52;14.30;;;;;;;14.81;100.00;101886.84;5012701;28;20121;-70
2022/10/28 08:35:34;;;;;;;20.83;14.90;;;;;;;14.78;100.00;101889.34;5011898;28;20116;-70
2022/10/28 08:38:01;;;;;;;24.55;17.42;;;;;;;14.71;100.00;101884.69;5010103;28;20046;-70
2022/10/28 08:41:20;;;;;;;21.25;16.05;;;;;;;14.75;100.00;101881.38;5012076;28;20030;-70
2022/10/28 08:44:00;;;;;;;20.02;14.48;;;;;;;15.02;100.00;101873.84;4968217;28;20101;-70
2022/10/28 08:46:34;;;;;;;20.80;13.27;;;;;;;15.23;100.00;101882.47;4967292;28;20034;-70
2022/10/28 08:49:02;;;;;;;18.08;13.18;;;;;;;15.31;100.00;101878.47;4951190;28;20035;-71
2022/10/28 08:51:54;;;;;;;17.63;12.75;;;;;;;15.37;100.00;101863.97;4950055;28;20051;-70
2022/10/28 08:54:29;;;;;;;18.48;13.38;;;;;;;15.72;100.00;101875.72;4949480;28;20043;-70
2022/10/28 08:56:59;;;;;;;18.40;12.02;;;;;;;15.81;100.00;101870.84;4950039;28;20062;-70
2022/10/28 08:59:35;;;;;;;;;;;;;;;15.95;100.00;101871.41;4949539;28;20069;-68
2022/10/28 09:02:10;;;;;;;16.02;11.40;;;;;;;15.91;100.00;101836.53;4948152;28;19918;-71
2022/10/28 09:04:43;;;;;;;17.95;12.40;;;;;;;16.16;100.00;101856.59;4949895;28;20031;-71
2022/10/28 09:07:23;;;;;;;15.60;11.23;;;;;;;16.11;100.00;101859.84;4949959;28;20063;-71
2022/10/28 09:09:49;;;;;;;;;;;;;;;16.15;100.00;101859.13;4950542;28;20065;-69
2022/10/28 09:12:41;;;;;;;16.98;11.50;;;;;;;16.18;100.00;101849.69;4949638;28;20380;-71
2022/10/28 09:15:06;;;;;;;14.98;11.50;;;;;;;16.34;100.00;101848.53;4980999;28;20086;-72
2022/10/28 09:17:52;;;;;;;18.13;12.40;;;;;;;16.62;98.79;101840.78;4989796;28;20409;-78
2022/10/28 09:20:42;;;;;;;15.13;9.50;;;;;;;16.63;96.95;101817.34;4996113;28;20043;-72
2022/10/28 09:23:29;;;;;;;17.42;10.75;;;;;;;16.95;96.11;101846.28;5002903;28;20050;-71
2022/10/28 09:26:27;;;;;;;13.63;10.27;;;;;;;17.29;95.10;101854.28;5011039;28;20566;-74
2022/10/28 09:29:14;;;;;;;13.05;10.23;;;;;;;17.57;94.21;101856.03;5007227;28;20034;-69
2022/10/28 09:32:20;;;;;;;15.43;10.52;;;;;;;17.82;94.04;101848.03;5008552;28;20050;-69
2022/10/28 09:34:53;;;;;;;14.93;9.48;;;;;;;17.93;90.43;101818.78;4950515;29;20413;-69
2022/10/28 09:37:27;;;;;;;14.32;9.18;;;;;;;18.10;88.86;101831.47;4934955;29;20501;-69
2022/10/28 09:40:15;;;;;;;11.35;8.77;;;;;;;17.99;88.06;101825.94;4950723;29;20047;-69
2022/10/28 09:42:48;;;;;;;12.75;8.52;;;;;;;18.21;87.01;101829.16;4950385;29;20641;-69
2022/10/28 09:45:20;;;;;;;10.27;7.28;;;;;;;18.38;84.64;101822.66;4950150;29;20035;-68
2022/10/28 09:47:55;;;;;;;14.05;8.60;;;;;;;18.61;87.21;101824.09;4949796;28;20122;-69
2022/10/28 09:50:26;;;;;;;9.80;6.90;;;;;;;18.80;84.52;101812.34;4949260;28;20486;-69
2022/10/28 09:52:55;;;;;;;19.27;8.68;;;;;;;19.01;85.44;101809.41;4950243;29;20046;-69
2022/10/28 09:55:22;;;;;;;11.95;8.07;;;;;;;19.12;81.30;101805.28;4950692;29;20039;-69
2022/10/28 09:57:47;;;;;;;11.30;7.60;;;;;;;19.23;80.34;101798.56;4950757;29;20054;-69
2022/10/28 10:00:15;;;;;;;11.68;7.28;;;;;;;19.18;79.86;101794.97;4950520;29;20450;-69
2022/10/28 10:02:41;;;;;;;8.95;7.45;;;;;;;19.24;80.12;101789.00;4948393;29;20036;-70
2022/10/28 10:05:17;;;;;;;14.95;7.13;;;;;;;19.40;79.08;101787.56;4969763;28;20046;-69
2022/10/28 10:08:02;;;;;;;13.68;6.93;;;;;;;19.46;74.94;101779.84;5011368;28;20042;-68
2022/10/28 10:10:50;;;;;;;7.80;4.95;;;;;;;19.67;73.03;101778.53;5010760;28;20033;-69
2022/10/28 10:13:21;;;;;;;7.75;5.10;;;;;;;19.65;70.18;101739.22;5010406;28;20054;-68
2022/10/28 10:15:55;;;;;;;9.40;6.10;;;;;;;19.97;71.71;101770.41;5010468;28;20411;-69
2022/10/28 10:18:24;;;;;;;8.45;5.97;;;;;;;20.17;73.87;101768.16;5018324;28;20083;-67
2022/10/28 10:20:57;;;;;;;10.38;6.03;;;;;;;20.33;73.28;101769.31;5030340;28;20475;-68
2022/10/28 10:23:31;;;;;;;6.68;4.57;;;;;;;20.44;68.08;101774.75;5029002;28;20037;-68
2022/10/28 10:26:01;;;;;;;8.35;4.55;;;;;;;20.55;68.49;101764.47;5026794;28;20038;-68
2022/10/28 10:28:27;;;;;;;;;;;;;;;20.52;65.36;101759.16;5030241;28;20806;-68
2022/10/28 10:30:58;;;;;;;6.22;3.88;;;;;;;20.03;64.36;101725.97;5022456;28;19921;-68
2022/10/28 10:33:32;;;;;;;7.35;4.45;;;;;;;20.31;65.65;101750.06;5015574;28;20034;-68
2022/10/28 10:36:02;;;;;;;6.60;4.57;;;;;;;20.56;66.47;101749.59;5028177;28;20119;-68
2022/10/28 10:38:29;;;;;;;;;;;;;;;20.70;64.23;101750.69;5027752;28;20126;-68
2022/10/28 10:40:55;;;;;;;8.02;4.22;;;;;;;20.74;63.82;101738.53;5031297;28;19909;-69
2022/10/28 10:43:22;;;;;;;9.93;3.75;;;;;;;20.97;61.25;101738.88;5031118;28;20032;-69
2022/10/28 10:46:15;;;;;;;5.97;3.10;;;;;;;20.95;57.43;101709.97;5031036;28;20055;-68
2022/10/28 10:48:41;;;;;;;5.95;3.40;;;;;;;21.16;56.75;101727.75;4950713;29;20050;-68
2022/10/28 10:51:24;;;;;;;7.00;2.30;;;;;;;20.56;50.72;101661.28;4950782;29;20039;-68
2022/10/28 10:53:54;;;;;;;2.50;1.60;;;;;;;20.76;46.13;101700.97;4950585;28;20070;-68
2022/10/28 10:56:28;;;;;;;3.78;2.00;;;;;;;20.64;47.33;101683.25;4950691;29;20122;-68
2022/10/28 10:58:56;;;;;;;7.38;2.53;;;;;;;20.86;46.26;101707.22;4950708;29;20035;-68
2022/10/28 11:01:25;;;;;;;9.25;3.05;;;;;;;20.81;49.14;101709.78;4949963;29;20063;-68
2022/10/28 11:03:56;;;;;;;8.23;3.28;;;;;;;20.71;50.26;101680.72;4950655;28;20035;-68
2022/10/28 11:06:26;;;;;;;12.65;3.47;;;;;;;20.91;50.20;101704.66;4950651;29;20059;-68
2022/10/28 11:09:01;;;;;;;15.80;3.92;;;;;;;20.94;50.82;101704.72;4950451;29;20561;-68
2022/10/28 11:11:38;;;;;;;6.63;3.03;;;;;;;21.10;50.64;101700.56;4950586;28;20035;-68
2022/10/28 11:14:11;;;;;;;5.63;3.17;;;;;;;21.05;50.06;101703.09;4950631;29;20035;-68
2022/10/28 11:16:53;;;;;;;5.03;3.30;;;;;;;21.13;49.48;101696.22;4950486;29;20031;-68
2022/10/28 11:19:22;;;;;;;6.68;3.05;;;;;;;21.27;51.16;101695.50;4950429;29;20050;-68